sensor_id;sensor_type;location;lat;lon;timestamp;P1;durP1;ratioP1;P2;durP2;ratioP2
19225;SDS011;9747;48.536;12.522;2023-08-08T00:01:51;0.98;;;0.90;;
19225;SDS011;9747;48.536;12.522;2023-08-08T00:04:18;1.88;;;1.00;;
19225;SDS011;9747;48.536;12.522;2023-08-08T00:06:45;1.40;;;0.90;;
19225;SDS011;9747;48.536;12.522;2023-08-08T00:09:13;1.17;;;0.90;;
19225;SDS011;9747;48.536;12.522;2023-08-08T00:11:42;1.05;;;1.05;;
19225;SDS011;9747;48.536;12.522;2023-08-08T00:14:10;1.10;;;1.10;;
19225;SDS011;9747;48.536;12.522;2023-08-08T00:16:37;1.23;;;1.10;;
19225;SDS011;9747;48.536;12.522;2023-08-08T00:19:05;0.85;;;0.85;;
19225;SDS011;9747;48.536;12.522;2023-08-08T00:21:33;0.90;;;0.90;;
19225;SDS011;9747;48.536;12.522;2023-08-08T00:24:00;0.95;;;0.95;;
19225;SDS011;9747;48.536;12.522;2023-08-08T00:26:28;1.05;;;0.95;;
19225;SDS011;9747;48.536;12.522;2023-08-08T00:28:57;0.90;;;0.90;;
19225;SDS011;9747;48.536;12.522;2023-08-08T00:31:24;1.55;;;1.00;;
19225;SDS011;9747;48.536;12.522;2023-08-08T00:33:52;0.85;;;0.85;;
19225;SDS011;9747;48.536;12.522;2023-08-08T00:36:19;0.85;;;0.85;;
19225;SDS011;9747;48.536;12.522;2023-08-08T00:38:46;0.88;;;0.88;;
19225;SDS011;9747;48.536;12.522;2023-08-08T00:41:14;0.95;;;0.95;;
19225;SDS011;9747;48.536;12.522;2023-08-08T00:43:42;0.82;;;0.82;;
19225;SDS011;9747;48.536;12.522;2023-08-08T00:46:11;1.15;;;1.05;;
19225;SDS011;9747;48.536;12.522;2023-08-08T00:48:38;0.80;;;0.80;;
19225;SDS011;9747;48.536;12.522;2023-08-08T00:51:06;0.93;;;0.93;;
19225;SDS011;9747;48.536;12.522;2023-08-08T00:53:33;0.70;;;0.70;;
19225;SDS011;9747;48.536;12.522;2023-08-08T00:56:01;0.80;;;0.80;;
19225;SDS011;9747;48.536;12.522;2023-08-08T00:58:28;0.73;;;0.73;;
19225;SDS011;9747;48.536;12.522;2023-08-08T01:00:56;0.82;;;0.82;;
19225;SDS011;9747;48.536;12.522;2023-08-08T01:03:26;0.60;;;0.60;;
19225;SDS011;9747;48.536;12.522;2023-08-08T01:05:57;0.80;;;0.80;;
19225;SDS011;9747;48.536;12.522;2023-08-08T01:08:31;1.08;;;1.05;;
19225;SDS011;9747;48.536;12.522;2023-08-08T01:11:03;0.80;;;0.80;;
19225;SDS011;9747;48.536;12.522;2023-08-08T01:13:30;0.70;;;0.70;;
19225;SDS011;9747;48.536;12.522;2023-08-08T01:15:59;0.70;;;0.70;;
19225;SDS011;9747;48.536;12.522;2023-08-08T01:18:30;0.80;;;0.80;;
19225;SDS011;9747;48.536;12.522;2023-08-08T01:20:58;0.80;;;0.80;;
19225;SDS011;9747;48.536;12.522;2023-08-08T01:23:28;0.80;;;0.80;;
19225;SDS011;9747;48.536;12.522;2023-08-08T01:26:00;0.80;;;0.80;;
19225;SDS011;9747;48.536;12.522;2023-08-08T01:28:29;0.75;;;0.75;;
19225;SDS011;9747;48.536;12.522;2023-08-08T01:30:56;0.80;;;0.80;;
19225;SDS011;9747;48.536;12.522;2023-08-08T01:33:23;0.70;;;0.70;;
19225;SDS011;9747;48.536;12.522;2023-08-08T01:35:52;0.70;;;0.70;;
19225;SDS011;9747;48.536;12.522;2023-08-08T01:38:26;0.90;;;0.90;;
19225;SDS011;9747;48.536;12.522;2023-08-08T01:40:58;0.70;;;0.70;;
19225;SDS011;9747;48.536;12.522;2023-08-08T01:43:27;0.70;;;0.70;;
19225;SDS011;9747;48.536;12.522;2023-08-08T01:45:57;0.85;;;0.85;;
19225;SDS011;9747;48.536;12.522;2023-08-08T01:48:25;1.15;;;0.80;;
19225;SDS011;9747;48.536;12.522;2023-08-08T01:50:54;0.90;;;0.90;;
19225;SDS011;9747;48.536;12.522;2023-08-08T01:53:22;0.80;;;0.80;;
19225;SDS011;9747;48.536;12.522;2023-08-08T01:55:49;0.60;;;0.60;;
19225;SDS011;9747;48.536;12.522;2023-08-08T01:58:19;0.98;;;0.90;;
19225;SDS011;9747;48.536;12.522;2023-08-08T02:00:46;0.82;;;0.82;;
19225;SDS011;9747;48.536;12.522;2023-08-08T02:03:14;0.75;;;0.75;;
19225;SDS011;9747;48.536;12.522;2023-08-08T02:05:42;0.68;;;0.68;;
19225;SDS011;9747;48.536;12.522;2023-08-08T02:08:09;0.80;;;0.80;;
19225;SDS011;9747;48.536;12.522;2023-08-08T02:10:38;0.73;;;0.73;;
19225;SDS011;9747;48.536;12.522;2023-08-08T02:13:05;0.70;;;0.70;;
19225;SDS011;9747;48.536;12.522;2023-08-08T02:15:34;0.70;;;0.70;;
19225;SDS011;9747;48.536;12.522;2023-08-08T02:18:02;0.65;;;0.65;;
19225;SDS011;9747;48.536;12.522;2023-08-08T02:20:31;0.70;;;0.70;;
19225;SDS011;9747;48.536;12.522;2023-08-08T02:22:58;0.80;;;0.80;;
19225;SDS011;9747;48.536;12.522;2023-08-08T02:25:25;0.80;;;0.80;;
19225;SDS011;9747;48.536;12.522;2023-08-08T02:27:53;0.70;;;0.70;;
19225;SDS011;9747;48.536;12.522;2023-08-08T02:30:20;0.85;;;0.77;;
19225;SDS011;9747;48.536;12.522;2023-08-08T02:32:49;0.70;;;0.70;;
19225;SDS011;9747;48.536;12.522;2023-08-08T02:35:17;0.70;;;0.70;;
19225;SDS011;9747;48.536;12.522;2023-08-08T02:37:45;0.80;;;0.80;;
19225;SDS011;9747;48.536;12.522;2023-08-08T02:40:12;0.80;;;0.80;;
19225;SDS011;9747;48.536;12.522;2023-08-08T02:42:40;0.70;;;0.70;;
19225;SDS011;9747;48.536;12.522;2023-08-08T02:45:07;0.63;;;0.63;;
19225;SDS011;9747;48.536;12.522;2023-08-08T02:47:36;0.70;;;0.70;;
19225;SDS011;9747;48.536;12.522;2023-08-08T02:50:05;0.80;;;0.80;;
19225;SDS011;9747;48.536;12.522;2023-08-08T02:52:33;0.60;;;0.60;;
19225;SDS011;9747;48.536;12.522;2023-08-08T02:55:01;0.65;;;0.65;;
19225;SDS011;9747;48.536;12.522;2023-08-08T02:57:29;0.93;;;0.70;;
19225;SDS011;9747;48.536;12.522;2023-08-08T02:59:56;0.82;;;0.80;;
19225;SDS011;9747;48.536;12.522;2023-08-08T03:02:24;0.70;;;0.70;;
19225;SDS011;9747;48.536;12.522;2023-08-08T03:04:52;0.70;;;0.70;;
19225;SDS011;9747;48.536;12.522;2023-08-08T03:07:24;0.70;;;0.70;;
19225;SDS011;9747;48.536;12.522;2023-08-08T03:09:51;1.15;;;0.70;;
19225;SDS011;9747;48.536;12.522;2023-08-08T03:12:19;0.70;;;0.70;;
19225;SDS011;9747;48.536;12.522;2023-08-08T03:14:50;0.70;;;0.70;;
19225;SDS011;9747;48.536;12.522;2023-08-08T03:17:17;0.60;;;0.60;;
19225;SDS011;9747;48.536;12.522;2023-08-08T03:19:45;0.80;;;0.80;;
19225;SDS011;9747;48.536;12.522;2023-08-08T03:22:13;1.27;;;0.80;;
19225;SDS011;9747;48.536;12.522;2023-08-08T03:24:42;0.77;;;0.77;;
19225;SDS011;9747;48.536;12.522;2023-08-08T03:27:10;0.68;;;0.68;;
19225;SDS011;9747;48.536;12.522;2023-08-08T03:29:38;0.70;;;0.70;;
19225;SDS011;9747;48.536;12.522;2023-08-08T03:32:06;0.50;;;0.50;;
19225;SDS011;9747;48.536;12.522;2023-08-08T03:34:34;0.70;;;0.70;;
19225;SDS011;9747;48.536;12.522;2023-08-08T03:37:03;0.70;;;0.70;;
19225;SDS011;9747;48.536;12.522;2023-08-08T03:39:30;3.92;;;0.70;;
19225;SDS011;9747;48.536;12.522;2023-08-08T03:41:59;1.50;;;0.90;;
19225;SDS011;9747;48.536;12.522;2023-08-08T03:44:28;0.70;;;0.70;;
19225;SDS011;9747;48.536;12.522;2023-08-08T03:46:56;0.73;;;0.73;;
19225;SDS011;9747;48.536;12.522;2023-08-08T03:49:23;0.70;;;0.70;;
19225;SDS011;9747;48.536;12.522;2023-08-08T03:51:52;2.63;;;0.82;;
19225;SDS011;9747;48.536;12.522;2023-08-08T03:54:19;0.63;;;0.63;;
19225;SDS011;9747;48.536;12.522;2023-08-08T03:56:46;0.70;;;0.70;;
19225;SDS011;9747;48.536;12.522;2023-08-08T03:59:15;1.20;;;0.60;;
19225;SDS011;9747;48.536;12.522;2023-08-08T04:01:43;0.75;;;0.75;;
19225;SDS011;9747;48.536;12.522;2023-08-08T04:04:10;0.80;;;0.80;;
19225;SDS011;9747;48.536;12.522;2023-08-08T04:06:38;0.73;;;0.73;;
19225;SDS011;9747;48.536;12.522;2023-08-08T04:09:05;1.77;;;0.70;;
19225;SDS011;9747;48.536;12.522;2023-08-08T04:11:33;0.70;;;0.70;;
19225;SDS011;9747;48.536;12.522;2023-08-08T04:14:00;4.88;;;0.63;;
19225;SDS011;9747;48.536;12.522;2023-08-08T04:16:30;2.38;;;0.90;;
19225;SDS011;9747;48.536;12.522;2023-08-08T04:18:57;0.68;;;0.68;;
19225;SDS011;9747;48.536;12.522;2023-08-08T04:21:25;1.15;;;0.70;;
19225;SDS011;9747;48.536;12.522;2023-08-08T04:23:54;1.55;;;0.70;;
19225;SDS011;9747;48.536;12.522;2023-08-08T04:26:21;0.80;;;0.80;;
19225;SDS011;9747;48.536;12.522;2023-08-08T04:28:48;0.80;;;0.80;;
19225;SDS011;9747;48.536;12.522;2023-08-08T04:31:16;1.17;;;0.70;;
19225;SDS011;9747;48.536;12.522;2023-08-08T04:33:45;0.80;;;0.80;;
19225;SDS011;9747;48.536;12.522;2023-08-08T04:36:12;0.80;;;0.75;;
19225;SDS011;9747;48.536;12.522;2023-08-08T04:38:39;1.42;;;1.00;;
19225;SDS011;9747;48.536;12.522;2023-08-08T04:41:07;1.67;;;0.82;;
19225;SDS011;9747;48.536;12.522;2023-08-08T04:43:34;1.52;;;0.82;;
19225;SDS011;9747;48.536;12.522;2023-08-08T04:46:02;0.80;;;0.80;;
19225;SDS011;9747;48.536;12.522;2023-08-08T04:48:29;1.10;;;0.77;;
19225;SDS011;9747;48.536;12.522;2023-08-08T04:50:59;0.98;;;0.77;;
19225;SDS011;9747;48.536;12.522;2023-08-08T04:53:26;1.45;;;0.73;;
19225;SDS011;9747;48.536;12.522;2023-08-08T04:55:54;0.70;;;0.70;;
19225;SDS011;9747;48.536;12.522;2023-08-08T04:58:21;0.65;;;0.65;;
19225;SDS011;9747;48.536;12.522;2023-08-08T05:00:48;0.80;;;0.80;;
19225;SDS011;9747;48.536;12.522;2023-08-08T05:03:16;0.93;;;0.88;;
19225;SDS011;9747;48.536;12.522;2023-08-08T05:05:44;1.38;;;0.90;;
19225;SDS011;9747;48.536;12.522;2023-08-08T05:08:13;1.15;;;0.82;;
19225;SDS011;9747;48.536;12.522;2023-08-08T05:10:40;1.42;;;0.80;;
19225;SDS011;9747;48.536;12.522;2023-08-08T05:13:09;1.00;;;1.00;;
19225;SDS011;9747;48.536;12.522;2023-08-08T05:15:36;0.93;;;0.70;;
19225;SDS011;9747;48.536;12.522;2023-08-08T05:18:04;3.30;;;0.90;;
19225;SDS011;9747;48.536;12.522;2023-08-08T05:20:31;0.70;;;0.70;;
19225;SDS011;9747;48.536;12.522;2023-08-08T05:22:59;1.65;;;0.70;;
19225;SDS011;9747;48.536;12.522;2023-08-08T05:25:28;1.90;;;0.70;;
19225;SDS011;9747;48.536;12.522;2023-08-08T05:27:55;0.73;;;0.73;;
19225;SDS011;9747;48.536;12.522;2023-08-08T05:30:22;0.95;;;0.80;;
19225;SDS011;9747;48.536;12.522;2023-08-08T05:32:51;1.00;;;0.70;;
19225;SDS011;9747;48.536;12.522;2023-08-08T05:35:18;0.63;;;0.63;;
19225;SDS011;9747;48.536;12.522;2023-08-08T05:37:46;0.73;;;0.73;;
19225;SDS011;9747;48.536;12.522;2023-08-08T05:40:13;1.77;;;1.40;;
19225;SDS011;9747;48.536;12.522;2023-08-08T05:42:42;0.80;;;0.80;;
19225;SDS011;9747;48.536;12.522;2023-08-08T05:45:10;1.00;;;0.98;;
19225;SDS011;9747;48.536;12.522;2023-08-08T05:47:37;0.82;;;0.80;;
19225;SDS011;9747;48.536;12.522;2023-08-08T05:50:05;1.15;;;0.73;;
19225;SDS011;9747;48.536;12.522;2023-08-08T05:52:33;0.85;;;0.73;;
19225;SDS011;9747;48.536;12.522;2023-08-08T05:55:01;2.42;;;0.80;;
19225;SDS011;9747;48.536;12.522;2023-08-08T05:57:28;0.75;;;0.60;;
19225;SDS011;9747;48.536;12.522;2023-08-08T05:59:57;0.80;;;0.80;;
19225;SDS011;9747;48.536;12.522;2023-08-08T06:02:24;0.75;;;0.75;;
19225;SDS011;9747;48.536;12.522;2023-08-08T06:04:52;1.20;;;1.00;;
19225;SDS011;9747;48.536;12.522;2023-08-08T06:07:19;0.77;;;0.52;;
19225;SDS011;9747;48.536;12.522;2023-08-08T06:09:46;0.85;;;0.85;;
19225;SDS011;9747;48.536;12.522;2023-08-08T06:12:14;0.70;;;0.70;;
19225;SDS011;9747;48.536;12.522;2023-08-08T06:14:41;1.17;;;0.90;;
19225;SDS011;9747;48.536;12.522;2023-08-08T06:17:10;0.73;;;0.73;;
19225;SDS011;9747;48.536;12.522;2023-08-08T06:19:37;0.95;;;0.80;;
19225;SDS011;9747;48.536;12.522;2023-08-08T06:22:05;1.65;;;0.80;;
19225;SDS011;9747;48.536;12.522;2023-08-08T06:24:32;1.02;;;0.90;;
19225;SDS011;9747;48.536;12.522;2023-08-08T06:27:00;1.48;;;0.80;;
19225;SDS011;9747;48.536;12.522;2023-08-08T06:29:27;0.77;;;0.77;;
19225;SDS011;9747;48.536;12.522;2023-08-08T06:31:55;4.03;;;1.05;;
19225;SDS011;9747;48.536;12.522;2023-08-08T06:34:24;2.05;;;1.10;;
19225;SDS011;9747;48.536;12.522;2023-08-08T06:36:52;2.47;;;1.00;;
19225;SDS011;9747;48.536;12.522;2023-08-08T06:39:19;4.45;;;1.10;;
19225;SDS011;9747;48.536;12.522;2023-08-08T06:41:47;4.53;;;1.00;;
19225;SDS011;9747;48.536;12.522;2023-08-08T06:44:18;4.03;;;0.98;;
19225;SDS011;9747;48.536;12.522;2023-08-08T06:46:46;1.63;;;1.00;;
19225;SDS011;9747;48.536;12.522;2023-08-08T06:49:13;1.20;;;1.10;;
19225;SDS011;9747;48.536;12.522;2023-08-08T06:51:42;2.28;;;0.90;;
19225;SDS011;9747;48.536;12.522;2023-08-08T06:54:10;1.05;;;0.90;;
19225;SDS011;9747;48.536;12.522;2023-08-08T06:56:37;1.77;;;0.80;;
19225;SDS011;9747;48.536;12.522;2023-08-08T06:59:04;1.17;;;0.90;;
19225;SDS011;9747;48.536;12.522;2023-08-08T07:01:32;1.30;;;1.02;;
19225;SDS011;9747;48.536;12.522;2023-08-08T07:03:59;2.30;;;1.05;;
19225;SDS011;9747;48.536;12.522;2023-08-08T07:06:27;2.92;;;0.98;;
19225;SDS011;9747;48.536;12.522;2023-08-08T07:08:56;2.03;;;0.77;;
19225;SDS011;9747;48.536;12.522;2023-08-08T07:11:24;2.08;;;1.13;;
19225;SDS011;9747;48.536;12.522;2023-08-08T07:13:51;2.38;;;0.82;;
19225;SDS011;9747;48.536;12.522;2023-08-08T07:16:19;1.95;;;1.15;;
19225;SDS011;9747;48.536;12.522;2023-08-08T07:18:46;1.60;;;1.05;;
19225;SDS011;9747;48.536;12.522;2023-08-08T07:21:14;2.30;;;1.00;;
19225;SDS011;9747;48.536;12.522;2023-08-08T07:23:41;1.42;;;1.17;;
19225;SDS011;9747;48.536;12.522;2023-08-08T07:26:10;1.25;;;1.10;;
19225;SDS011;9747;48.536;12.522;2023-08-08T07:28:38;1.05;;;0.82;;
19225;SDS011;9747;48.536;12.522;2023-08-08T07:31:05;0.80;;;0.80;;
19225;SDS011;9747;48.536;12.522;2023-08-08T07:33:33;1.23;;;0.95;;
19225;SDS011;9747;48.536;12.522;2023-08-08T07:36:00;1.63;;;1.00;;
19225;SDS011;9747;48.536;12.522;2023-08-08T07:38:27;1.02;;;0.80;;
19225;SDS011;9747;48.536;12.522;2023-08-08T07:40:55;1.23;;;0.85;;
19225;SDS011;9747;48.536;12.522;2023-08-08T07:43:24;3.03;;;0.80;;
19225;SDS011;9747;48.536;12.522;2023-08-08T07:45:53;1.00;;;0.68;;
19225;SDS011;9747;48.536;12.522;2023-08-08T07:48:20;1.48;;;0.85;;
19225;SDS011;9747;48.536;12.522;2023-08-08T07:50:47;1.45;;;0.90;;
19225;SDS011;9747;48.536;12.522;2023-08-08T07:53:15;1.40;;;0.90;;
19225;SDS011;9747;48.536;12.522;2023-08-08T07:55:42;1.00;;;0.90;;
19225;SDS011;9747;48.536;12.522;2023-08-08T07:58:10;0.95;;;0.88;;
19225;SDS011;9747;48.536;12.522;2023-08-08T08:00:38;0.80;;;0.80;;
19225;SDS011;9747;48.536;12.522;2023-08-08T08:03:07;0.80;;;0.80;;
19225;SDS011;9747;48.536;12.522;2023-08-08T08:05:34;0.80;;;0.80;;
19225;SDS011;9747;48.536;12.522;2023-08-08T08:08:02;0.85;;;0.70;;
19225;SDS011;9747;48.536;12.522;2023-08-08T08:10:30;1.33;;;0.90;;
19225;SDS011;9747;48.536;12.522;2023-08-08T08:12:58;1.50;;;0.90;;
19225;SDS011;9747;48.536;12.522;2023-08-08T08:15:26;1.10;;;0.90;;
19225;SDS011;9747;48.536;12.522;2023-08-08T08:17:55;2.35;;;0.77;;
19225;SDS011;9747;48.536;12.522;2023-08-08T08:20:23;0.82;;;0.82;;
19225;SDS011;9747;48.536;12.522;2023-08-08T08:22:50;2.33;;;1.00;;
19225;SDS011;9747;48.536;12.522;2023-08-08T08:25:17;1.85;;;0.90;;
19225;SDS011;9747;48.536;12.522;2023-08-08T08:27:45;1.70;;;0.95;;
19225;SDS011;9747;48.536;12.522;2023-08-08T08:30:13;1.95;;;0.88;;
19225;SDS011;9747;48.536;12.522;2023-08-08T08:32:40;1.65;;;0.70;;
19225;SDS011;9747;48.536;12.522;2023-08-08T08:35:10;2.20;;;1.00;;
19225;SDS011;9747;48.536;12.522;2023-08-08T08:37:38;2.55;;;1.10;;
19225;SDS011;9747;48.536;12.522;2023-08-08T08:40:06;0.80;;;0.80;;
19225;SDS011;9747;48.536;12.522;2023-08-08T08:42:35;1.10;;;1.00;;
19225;SDS011;9747;48.536;12.522;2023-08-08T08:45:03;1.77;;;0.90;;
19225;SDS011;9747;48.536;12.522;2023-08-08T08:47:32;0.93;;;0.90;;
19225;SDS011;9747;48.536;12.522;2023-08-08T08:50:00;1.15;;;1.05;;
19225;SDS011;9747;48.536;12.522;2023-08-08T08:52:30;1.95;;;0.82;;
19225;SDS011;9747;48.536;12.522;2023-08-08T08:54:57;2.55;;;1.02;;
19225;SDS011;9747;48.536;12.522;2023-08-08T08:57:25;2.67;;;1.10;;
19225;SDS011;9747;48.536;12.522;2023-08-08T08:59:52;3.42;;;1.02;;
19225;SDS011;9747;48.536;12.522;2023-08-08T09:02:20;2.05;;;0.93;;
19225;SDS011;9747;48.536;12.522;2023-08-08T09:04:48;2.47;;;1.00;;
19225;SDS011;9747;48.536;12.522;2023-08-08T09:07:18;2.38;;;1.10;;
19225;SDS011;9747;48.536;12.522;2023-08-08T09:09:48;3.97;;;1.38;;
19225;SDS011;9747;48.536;12.522;2023-08-08T09:12:15;2.45;;;1.20;;
19225;SDS011;9747;48.536;12.522;2023-08-08T09:14:43;3.13;;;1.23;;
19225;SDS011;9747;48.536;12.522;2023-08-08T09:17:11;5.65;;;1.55;;
19225;SDS011;9747;48.536;12.522;2023-08-08T09:19:38;3.58;;;1.33;;
19225;SDS011;9747;48.536;12.522;2023-08-08T09:22:10;4.53;;;1.30;;
19225;SDS011;9747;48.536;12.522;2023-08-08T09:24:38;3.08;;;1.20;;
19225;SDS011;9747;48.536;12.522;2023-08-08T09:27:08;3.70;;;1.20;;
19225;SDS011;9747;48.536;12.522;2023-08-08T09:29:36;4.57;;;1.48;;
19225;SDS011;9747;48.536;12.522;2023-08-08T09:32:04;2.88;;;1.30;;
19225;SDS011;9747;48.536;12.522;2023-08-08T09:34:33;2.22;;;1.30;;
19225;SDS011;9747;48.536;12.522;2023-08-08T09:37:01;2.67;;;1.20;;
19225;SDS011;9747;48.536;12.522;2023-08-08T09:39:30;1.55;;;1.10;;
19225;SDS011;9747;48.536;12.522;2023-08-08T09:41:57;3.88;;;1.30;;
19225;SDS011;9747;48.536;12.522;2023-08-08T09:44:26;2.47;;;1.50;;
19225;SDS011;9747;48.536;12.522;2023-08-08T09:46:55;4.25;;;1.50;;
19225;SDS011;9747;48.536;12.522;2023-08-08T09:49:22;3.28;;;1.48;;
19225;SDS011;9747;48.536;12.522;2023-08-08T09:51:51;2.35;;;1.13;;
19225;SDS011;9747;48.536;12.522;2023-08-08T09:54:18;2.15;;;1.38;;
19225;SDS011;9747;48.536;12.522;2023-08-08T09:56:47;2.60;;;1.23;;
19225;SDS011;9747;48.536;12.522;2023-08-08T09:59:15;4.22;;;1.40;;
19225;SDS011;9747;48.536;12.522;2023-08-08T10:01:45;1.90;;;1.20;;
19225;SDS011;9747;48.536;12.522;2023-08-08T10:04:13;1.15;;;1.10;;
19225;SDS011;9747;48.536;12.522;2023-08-08T10:06:41;1.88;;;1.05;;
19225;SDS011;9747;48.536;12.522;2023-08-08T10:09:09;2.28;;;1.30;;
19225;SDS011;9747;48.536;12.522;2023-08-08T10:11:37;1.20;;;1.10;;
19225;SDS011;9747;48.536;12.522;2023-08-08T10:14:06;2.30;;;1.67;;
19225;SDS011;9747;48.536;12.522;2023-08-08T10:16:38;2.78;;;1.20;;
19225;SDS011;9747;48.536;12.522;2023-08-08T10:19:08;2.25;;;1.20;;
19225;SDS011;9747;48.536;12.522;2023-08-08T10:21:36;2.65;;;1.40;;
19225;SDS011;9747;48.536;12.522;2023-08-08T10:24:08;5.15;;;1.55;;
19225;SDS011;9747;48.536;12.522;2023-08-08T10:26:50;4.78;;;1.50;;
19225;SDS011;9747;48.536;12.522;2023-08-08T10:29:20;1.17;;;1.00;;
19225;SDS011;9747;48.536;12.522;2023-08-08T10:31:52;6.38;;;1.30;;
19225;SDS011;9747;48.536;12.522;2023-08-08T10:34:35;1.90;;;1.15;;
19225;SDS011;9747;48.536;12.522;2023-08-08T10:37:04;3.53;;;1.50;;
19225;SDS011;9747;48.536;12.522;2023-08-08T10:39:31;1.92;;;1.50;;
19225;SDS011;9747;48.536;12.522;2023-08-08T10:42:00;4.53;;;1.38;;
19225;SDS011;9747;48.536;12.522;2023-08-08T10:44:30;2.65;;;1.50;;
19225;SDS011;9747;48.536;12.522;2023-08-08T10:46:59;4.75;;;1.63;;
19225;SDS011;9747;48.536;12.522;2023-08-08T10:49:28;2.55;;;1.50;;
19225;SDS011;9747;48.536;12.522;2023-08-08T10:52:01;4.22;;;1.50;;
19225;SDS011;9747;48.536;12.522;2023-08-08T10:54:30;3.15;;;1.73;;
19225;SDS011;9747;48.536;12.522;2023-08-08T10:56:58;2.35;;;1.70;;
19225;SDS011;9747;48.536;12.522;2023-08-08T10:59:27;4.78;;;3.53;;
19225;SDS011;9747;48.536;12.522;2023-08-08T11:02:03;8.65;;;5.35;;
19225;SDS011;9747;48.536;12.522;2023-08-08T11:04:32;7.30;;;3.88;;
19225;SDS011;9747;48.536;12.522;2023-08-08T11:07:00;5.97;;;3.28;;
19225;SDS011;9747;48.536;12.522;2023-08-08T11:09:28;9.13;;;4.80;;
19225;SDS011;9747;48.536;12.522;2023-08-08T11:11:55;10.10;;;5.65;;
19225;SDS011;9747;48.536;12.522;2023-08-08T11:14:23;8.18;;;4.60;;
19225;SDS011;9747;48.536;12.522;2023-08-08T11:16:51;11.27;;;5.88;;
19225;SDS011;9747;48.536;12.522;2023-08-08T11:19:19;14.48;;;7.00;;
19225;SDS011;9747;48.536;12.522;2023-08-08T11:21:49;22.48;;;9.80;;
19225;SDS011;9747;48.536;12.522;2023-08-08T11:24:16;21.85;;;10.98;;
19225;SDS011;9747;48.536;12.522;2023-08-08T11:26:44;22.90;;;12.10;;
19225;SDS011;9747;48.536;12.522;2023-08-08T11:29:12;24.30;;;11.23;;
19225;SDS011;9747;48.536;12.522;2023-08-08T11:31:40;25.33;;;12.00;;
19225;SDS011;9747;48.536;12.522;2023-08-08T11:34:08;27.70;;;12.45;;
19225;SDS011;9747;48.536;12.522;2023-08-08T11:36:37;20.48;;;10.30;;
19225;SDS011;9747;48.536;12.522;2023-08-08T11:39:06;23.33;;;10.52;;
19225;SDS011;9747;48.536;12.522;2023-08-08T11:41:35;48.28;;;21.98;;
19225;SDS011;9747;48.536;12.522;2023-08-08T11:44:03;29.25;;;14.32;;
19225;SDS011;9747;48.536;12.522;2023-08-08T11:46:32;44.85;;;22.08;;
19225;SDS011;9747;48.536;12.522;2023-08-08T11:49:03;39.15;;;18.48;;
19225;SDS011;9747;48.536;12.522;2023-08-08T11:51:31;31.13;;;15.20;;
19225;SDS011;9747;48.536;12.522;2023-08-08T11:54:00;43.25;;;21.10;;
19225;SDS011;9747;48.536;12.522;2023-08-08T11:56:32;49.60;;;23.42;;
19225;SDS011;9747;48.536;12.522;2023-08-08T11:59:00;45.80;;;22.17;;
19225;SDS011;9747;48.536;12.522;2023-08-08T12:01:29;38.83;;;19.13;;
19225;SDS011;9747;48.536;12.522;2023-08-08T12:04:03;39.20;;;19.05;;
19225;SDS011;9747;48.536;12.522;2023-08-08T12:06:32;62.20;;;28.42;;
19225;SDS011;9747;48.536;12.522;2023-08-08T12:09:03;43.72;;;22.23;;
19225;SDS011;9747;48.536;12.522;2023-08-08T12:11:34;43.58;;;21.67;;
19225;SDS011;9747;48.536;12.522;2023-08-08T12:14:03;39.75;;;18.48;;
19225;SDS011;9747;48.536;12.522;2023-08-08T12:16:33;45.08;;;21.55;;
19225;SDS011;9747;48.536;12.522;2023-08-08T12:19:04;46.35;;;21.40;;
19225;SDS011;9747;48.536;12.522;2023-08-08T12:21:36;46.80;;;23.63;;
19225;SDS011;9747;48.536;12.522;2023-08-08T12:24:04;51.90;;;24.25;;
19225;SDS011;9747;48.536;12.522;2023-08-08T12:26:32;37.13;;;19.42;;
19225;SDS011;9747;48.536;12.522;2023-08-08T12:29:01;31.83;;;16.33;;
19225;SDS011;9747;48.536;12.522;2023-08-08T12:31:28;40.90;;;18.67;;
19225;SDS011;9747;48.536;12.522;2023-08-08T12:33:56;33.63;;;18.15;;
19225;SDS011;9747;48.536;12.522;2023-08-08T12:36:23;37.63;;;17.48;;
19225;SDS011;9747;48.536;12.522;2023-08-08T12:38:50;35.97;;;18.48;;
19225;SDS011;9747;48.536;12.522;2023-08-08T12:41:18;35.53;;;16.63;;
19225;SDS011;9747;48.536;12.522;2023-08-08T12:43:47;38.58;;;19.17;;
19225;SDS011;9747;48.536;12.522;2023-08-08T12:46:15;33.05;;;18.77;;
19225;SDS011;9747;48.536;12.522;2023-08-08T12:48:42;31.98;;;15.77;;
19225;SDS011;9747;48.536;12.522;2023-08-08T12:51:10;35.75;;;17.45;;
19225;SDS011;9747;48.536;12.522;2023-08-08T12:53:37;36.45;;;17.45;;
19225;SDS011;9747;48.536;12.522;2023-08-08T12:56:05;31.10;;;15.55;;
19225;SDS011;9747;48.536;12.522;2023-08-08T12:58:32;35.47;;;17.23;;
19225;SDS011;9747;48.536;12.522;2023-08-08T13:01:01;33.15;;;15.77;;
19225;SDS011;9747;48.536;12.522;2023-08-08T13:03:28;30.15;;;16.05;;
19225;SDS011;9747;48.536;12.522;2023-08-08T13:05:59;35.35;;;17.45;;
19225;SDS011;9747;48.536;12.522;2023-08-08T13:08:26;32.85;;;16.70;;
19225;SDS011;9747;48.536;12.522;2023-08-08T13:10:53;32.75;;;16.48;;
19225;SDS011;9747;48.536;12.522;2023-08-08T13:13:21;33.75;;;16.42;;
19225;SDS011;9747;48.536;12.522;2023-08-08T13:15:50;27.95;;;15.00;;
19225;SDS011;9747;48.536;12.522;2023-08-08T13:18:19;31.88;;;15.68;;
19225;SDS011;9747;48.536;12.522;2023-08-08T13:20:47;31.92;;;15.63;;
19225;SDS011;9747;48.536;12.522;2023-08-08T13:23:14;29.45;;;15.15;;
19225;SDS011;9747;48.536;12.522;2023-08-08T13:25:42;28.90;;;14.98;;
19225;SDS011;9747;48.536;12.522;2023-08-08T13:28:09;30.08;;;16.50;;
19225;SDS011;9747;48.536;12.522;2023-08-08T13:30:37;27.58;;;14.65;;
19225;SDS011;9747;48.536;12.522;2023-08-08T13:33:06;34.17;;;18.23;;
19225;SDS011;9747;48.536;12.522;2023-08-08T13:35:35;30.35;;;17.17;;
19225;SDS011;9747;48.536;12.522;2023-08-08T13:38:02;25.13;;;14.30;;
19225;SDS011;9747;48.536;12.522;2023-08-08T13:40:30;30.52;;;15.80;;
19225;SDS011;9747;48.536;12.522;2023-08-08T13:42:58;21.55;;;12.00;;
19225;SDS011;9747;48.536;12.522;2023-08-08T13:45:25;29.35;;;15.00;;
19225;SDS011;9747;48.536;12.522;2023-08-08T13:47:53;24.30;;;13.18;;
19225;SDS011;9747;48.536;12.522;2023-08-08T13:50:20;28.25;;;15.55;;
19225;SDS011;9747;48.536;12.522;2023-08-08T13:52:49;21.75;;;12.10;;
19225;SDS011;9747;48.536;12.522;2023-08-08T13:55:17;28.30;;;15.20;;
19225;SDS011;9747;48.536;12.522;2023-08-08T13:57:45;17.58;;;10.52;;
19225;SDS011;9747;48.536;12.522;2023-08-08T14:00:12;25.52;;;13.15;;
19225;SDS011;9747;48.536;12.522;2023-08-08T14:02:41;22.15;;;12.45;;
19225;SDS011;9747;48.536;12.522;2023-08-08T14:05:09;25.90;;;13.15;;
19225;SDS011;9747;48.536;12.522;2023-08-08T14:07:36;23.45;;;13.32;;
19225;SDS011;9747;48.536;12.522;2023-08-08T14:10:07;23.33;;;12.93;;
19225;SDS011;9747;48.536;12.522;2023-08-08T14:12:35;14.48;;;9.52;;
19225;SDS011;9747;48.536;12.522;2023-08-08T14:15:03;16.27;;;9.05;;
19225;SDS011;9747;48.536;12.522;2023-08-08T14:17:34;14.88;;;7.93;;
19225;SDS011;9747;48.536;12.522;2023-08-08T14:20:01;16.00;;;9.43;;
19225;SDS011;9747;48.536;12.522;2023-08-08T14:22:29;16.70;;;9.98;;
19225;SDS011;9747;48.536;12.522;2023-08-08T14:24:57;16.17;;;9.80;;
19225;SDS011;9747;48.536;12.522;2023-08-08T14:27:26;17.52;;;10.50;;
19225;SDS011;9747;48.536;12.522;2023-08-08T14:29:53;21.75;;;9.50;;
19225;SDS011;9747;48.536;12.522;2023-08-08T14:32:20;19.55;;;10.88;;
19225;SDS011;9747;48.536;12.522;2023-08-08T14:34:48;21.02;;;11.80;;
19225;SDS011;9747;48.536;12.522;2023-08-08T14:37:15;18.42;;;10.38;;
19225;SDS011;9747;48.536;12.522;2023-08-08T14:39:43;17.73;;;10.32;;
19225;SDS011;9747;48.536;12.522;2023-08-08T14:42:10;18.23;;;11.10;;
19225;SDS011;9747;48.536;12.522;2023-08-08T14:44:39;18.83;;;11.20;;
19225;SDS011;9747;48.536;12.522;2023-08-08T14:47:06;18.83;;;9.98;;